Chatfield, Minnesota
Current Conditions -  °F | °C
As of 8:56 AM on Friday 19 Dec 2014 (Local Time) from KFKA Reporting Station
Overcast Overcast  
Wind Chill: 16°   Ceiling: 3000
Heat Index: 23°   Visibility: 10mi
Dew Point: 19°   Wind: 6mph
Humidity: 85%   Direction: 170°S
Pressure: 30.26"   Gusts: NA
Location:  43.85°N, 92.19°W
Report Text: KFKA 191456Z AUTO 17005KT 10SM OVC030 M05/M07 A3026 RMK AO2 T10501072
Loading
Personal Weather Stations






























Interactive Weather Map New forecast layout! Learn more

10-Day Weather Forecast

Advertisements
Track Severe Weather on mobile